sensor_id;sensor_type;location;lat;lon;timestamp;pressure;altitude;pressure_sealevel;temperature;humidity
40574;BME280;26283;49.020;8.644;2023-04-30T00:02:18;99605.00;;;15.73;57.98
40574;BME280;26283;49.020;8.644;2023-04-30T00:04:43;99610.44;;;15.73;57.99
40574;BME280;26283;49.020;8.644;2023-04-30T00:07:09;99609.59;;;15.73;57.98
40574;BME280;26283;49.020;8.644;2023-04-30T00:09:34;99605.22;;;15.72;57.99
40574;BME280;26283;49.020;8.644;2023-04-30T00:12:00;99618.81;;;15.72;57.99
40574;BME280;26283;49.020;8.644;2023-04-30T00:14:28;99609.84;;;15.71;57.98
40574;BME280;26283;49.020;8.644;2023-04-30T00:16:53;99616.34;;;15.70;58.00
40574;BME280;26283;49.020;8.644;2023-04-30T00:19:19;99620.72;;;15.71;58.00
40574;BME280;26283;49.020;8.644;2023-04-30T00:21:44;99615.50;;;15.70;58.01
40574;BME280;26283;49.020;8.644;2023-04-30T00:24:10;99619.06;;;15.70;58.01
40574;BME280;26283;49.020;8.644;2023-04-30T00:26:35;99620.94;;;15.70;58.01
40574;BME280;26283;49.020;8.644;2023-04-30T00:29:00;99621.19;;;15.68;58.02
40574;BME280;26283;49.020;8.644;2023-04-30T00:31:26;99622.84;;;15.69;58.02
40574;BME280;26283;49.020;8.644;2023-04-30T00:33:52;99616.59;;;15.69;58.03
40574;BME280;26283;49.020;8.644;2023-04-30T00:36:18;99627.44;;;15.69;58.03
40574;BME280;26283;49.020;8.644;2023-04-30T00:38:44;99629.34;;;15.68;58.05
40574;BME280;26283;49.020;8.644;2023-04-30T00:41:09;99631.22;;;15.68;58.05
40574;BME280;26283;49.020;8.644;2023-04-30T00:43:34;99638.56;;;15.67;58.05
40574;BME280;26283;49.020;8.644;2023-04-30T00:46:03;99634.19;;;15.66;58.06
40574;BME280;26283;49.020;8.644;2023-04-30T00:48:30;99635.00;;;15.67;58.06
40574;BME280;26283;49.020;8.644;2023-04-30T00:50:56;99629.34;;;15.68;58.07
40574;BME280;26283;49.020;8.644;2023-04-30T00:53:21;99624.97;;;15.67;58.07
40574;BME280;26283;49.020;8.644;2023-04-30T00:55:47;99623.31;;;15.66;58.08
40574;BME280;26283;49.020;8.644;2023-04-30T00:58:12;99624.38;;;15.65;58.09
40574;BME280;26283;49.020;8.644;2023-04-30T01:00:38;99624.38;;;15.65;58.08
40574;BME280;26283;49.020;8.644;2023-04-30T01:03:03;99620.03;;;15.64;58.08
40574;BME280;26283;49.020;8.644;2023-04-30T01:05:29;99607.25;;;15.65;58.09
40574;BME280;26283;49.020;8.644;2023-04-30T01:07:55;99603.72;;;15.64;58.09
40574;BME280;26283;49.020;8.644;2023-04-30T01:10:22;99611.03;;;15.64;58.10
40574;BME280;26283;49.020;8.644;2023-04-30T01:13:11;99610.22;;;15.63;58.11
40574;BME280;26283;49.020;8.644;2023-04-30T01:16:04;99612.94;;;15.63;58.16
40574;BME280;26283;49.020;8.644;2023-04-30T01:19:08;99608.56;;;15.62;58.15
40574;BME280;26283;49.020;8.644;2023-04-30T01:21:38;99610.47;;;15.62;58.17
40574;BME280;26283;49.020;8.644;2023-04-30T01:24:17;99617.78;;;15.61;58.12
40574;BME280;26283;49.020;8.644;2023-04-30T01:26:59;99611.53;;;15.61;58.17
40574;BME280;26283;49.020;8.644;2023-04-30T01:29:31;99610.69;;;15.60;58.18
40574;BME280;26283;49.020;8.644;2023-04-30T01:31:57;99620.50;;;15.61;58.15
40574;BME280;26283;49.020;8.644;2023-04-30T01:34:22;99616.12;;;15.60;58.17
40574;BME280;26283;49.020;8.644;2023-04-30T01:37:18;99614.25;;;15.61;58.18
40574;BME280;26283;49.020;8.644;2023-04-30T01:39:49;99611.78;;;15.59;58.19
40574;BME280;26283;49.020;8.644;2023-04-30T01:42:27;99606.34;;;15.59;58.17
40574;BME280;26283;49.020;8.644;2023-04-30T01:47:44;99610.97;;;15.59;58.18
40574;BME280;26283;49.020;8.644;2023-04-30T01:50:33;99615.59;;;15.58;58.17
40574;BME280;26283;49.020;8.644;2023-04-30T01:53:02;99611.22;;;15.57;58.20
40574;BME280;26283;49.020;8.644;2023-04-30T01:55:42;99609.31;;;15.58;58.18
40574;BME280;26283;49.020;8.644;2023-04-30T01:58:12;99612.03;;;15.58;58.21
40574;BME280;26283;49.020;8.644;2023-04-30T02:00:39;99603.06;;;15.57;58.20
40574;BME280;26283;49.020;8.644;2023-04-30T02:03:05;99603.31;;;15.56;58.20
40574;BME280;26283;49.020;8.644;2023-04-30T02:05:30;99600.59;;;15.56;58.21
40574;BME280;26283;49.020;8.644;2023-04-30T02:07:56;99594.31;;;15.55;58.21
40574;BME280;26283;49.020;8.644;2023-04-30T02:10:25;99606.03;;;15.56;58.23
40574;BME280;26283;49.020;8.644;2023-04-30T02:12:51;99601.41;;;15.56;58.22
40574;BME280;26283;49.020;8.644;2023-04-30T02:15:16;99601.62;;;15.55;58.21
40574;BME280;26283;49.020;8.644;2023-04-30T02:17:42;99606.84;;;15.56;58.21
40574;BME280;26283;49.020;8.644;2023-04-30T02:20:08;99604.34;;;15.55;58.20
40574;BME280;26283;49.020;8.644;2023-04-30T02:22:34;99602.44;;;15.55;58.21
40574;BME280;26283;49.020;8.644;2023-04-30T02:25:00;99605.41;;;15.54;58.21
40574;BME280;26283;49.020;8.644;2023-04-30T02:27:25;99605.16;;;15.55;58.21
40574;BME280;26283;49.020;8.644;2023-04-30T02:29:52;99612.50;;;15.55;58.21
40574;BME280;26283;49.020;8.644;2023-04-30T02:32:18;99599.16;;;15.53;58.20
40574;BME280;26283;49.020;8.644;2023-04-30T02:34:44;99596.44;;;15.53;58.21
40574;BME280;26283;49.020;8.644;2023-04-30T02:37:09;99603.50;;;15.54;58.21
40574;BME280;26283;49.020;8.644;2023-04-30T02:39:35;99604.56;;;15.53;58.20
40574;BME280;26283;49.020;8.644;2023-04-30T02:42:00;99600.22;;;15.52;58.20
40574;BME280;26283;49.020;8.644;2023-04-30T02:44:26;99606.47;;;15.53;58.20
40574;BME280;26283;49.020;8.644;2023-04-30T02:46:51;99605.88;;;15.51;58.22
40574;BME280;26283;49.020;8.644;2023-04-30T02:49:17;99605.88;;;15.51;58.21
40574;BME280;26283;49.020;8.644;2023-04-30T02:51:42;99609.44;;;15.51;58.21
40574;BME280;26283;49.020;8.644;2023-04-30T02:54:08;99610.25;;;15.52;58.21
40574;BME280;26283;49.020;8.644;2023-04-30T02:56:33;99613.22;;;15.50;58.23
40574;BME280;26283;49.020;8.644;2023-04-30T02:58:59;99606.94;;;15.50;58.22
40574;BME280;26283;49.020;8.644;2023-04-30T03:01:24;99600.69;;;15.49;58.24
40574;BME280;26283;49.020;8.644;2023-04-30T03:03:50;99599.03;;;15.48;58.24
40574;BME280;26283;49.020;8.644;2023-04-30T03:06:15;99600.69;;;15.49;58.23
40574;BME280;26283;49.020;8.644;2023-04-30T03:08:41;99601.75;;;15.48;58.24
40574;BME280;26283;49.020;8.644;2023-04-30T03:11:06;99603.66;;;15.48;58.24
40574;BME280;26283;49.020;8.644;2023-04-30T03:13:31;99596.31;;;15.48;58.24
40574;BME280;26283;49.020;8.644;2023-04-30T03:16:00;99598.47;;;15.46;58.24
40574;BME280;26283;49.020;8.644;2023-04-30T03:18:27;99597.37;;;15.47;58.24
40574;BME280;26283;49.020;8.644;2023-04-30T03:20:53;99603.88;;;15.46;58.25
40574;BME280;26283;49.020;8.644;2023-04-30T03:23:18;99607.44;;;15.47;58.25
40574;BME280;26283;49.020;8.644;2023-04-30T03:25:44;99603.88;;;15.46;58.26
40574;BME280;26283;49.020;8.644;2023-04-30T03:28:09;99601.16;;;15.46;58.27
40574;BME280;26283;49.020;8.644;2023-04-30T03:30:35;99597.63;;;15.46;58.27
40574;BME280;26283;49.020;8.644;2023-04-30T03:33:00;99599.53;;;15.45;58.26
40574;BME280;26283;49.020;8.644;2023-04-30T03:35:25;99595.16;;;15.44;58.27
40574;BME280;26283;49.020;8.644;2023-04-30T03:37:51;99588.66;;;15.45;58.27
40574;BME280;26283;49.020;8.644;2023-04-30T03:40:16;99589.72;;;15.44;58.28
40574;BME280;26283;49.020;8.644;2023-04-30T03:42:42;99594.34;;;15.43;58.29
40574;BME280;26283;49.020;8.644;2023-04-30T03:45:07;99598.94;;;15.43;58.29
40574;BME280;26283;49.020;8.644;2023-04-30T03:47:35;99593.50;;;15.43;58.29
40574;BME280;26283;49.020;8.644;2023-04-30T03:50:02;99582.87;;;15.41;58.31
40574;BME280;26283;49.020;8.644;2023-04-30T03:52:28;99592.69;;;15.42;58.31
40574;BME280;26283;49.020;8.644;2023-04-30T03:54:53;99591.03;;;15.41;58.32
40574;BME280;26283;49.020;8.644;2023-04-30T03:57:19;99594.56;;;15.42;58.33
40574;BME280;26283;49.020;8.644;2023-04-30T03:59:44;99583.72;;;15.42;58.33
40574;BME280;26283;49.020;8.644;2023-04-30T04:02:10;99594.56;;;15.42;58.33
40574;BME280;26283;49.020;8.644;2023-04-30T04:04:35;99596.47;;;15.41;58.33
40574;BME280;26283;49.020;8.644;2023-04-30T04:07:01;99589.37;;;15.40;58.33
40574;BME280;26283;49.020;8.644;2023-04-30T04:09:28;99589.37;;;15.40;58.34
40574;BME280;26283;49.020;8.644;2023-04-30T04:11:53;99598.34;;;15.41;58.34
40574;BME280;26283;49.020;8.644;2023-04-30T04:14:18;99591.28;;;15.40;58.34
40574;BME280;26283;49.020;8.644;2023-04-30T04:16:44;99593.97;;;15.40;58.34
40574;BME280;26283;49.020;8.644;2023-04-30T04:19:09;99602.38;;;15.38;58.36
40574;BME280;26283;49.020;8.644;2023-04-30T04:21:36;99598.84;;;15.38;58.36
40574;BME280;26283;49.020;8.644;2023-04-30T04:24:02;99590.69;;;15.38;58.37
40574;BME280;26283;49.020;8.644;2023-04-30T04:26:33;99592.56;;;15.37;58.37
40574;BME280;26283;49.020;8.644;2023-04-30T04:28:58;99597.22;;;15.37;58.38
40574;BME280;26283;49.020;8.644;2023-04-30T04:31:24;99595.56;;;15.36;58.39
40574;BME280;26283;49.020;8.644;2023-04-30T04:33:49;99601.00;;;15.36;58.40
40574;BME280;26283;49.020;8.644;2023-04-30T04:36:22;99603.72;;;15.36;58.40
40574;BME280;26283;49.020;8.644;2023-04-30T04:38:47;99609.12;;;15.36;58.40
40574;BME280;26283;49.020;8.644;2023-04-30T04:41:13;99608.31;;;15.35;58.41
40574;BME280;26283;49.020;8.644;2023-04-30T04:43:38;99598.50;;;15.34;58.40
40574;BME280;26283;49.020;8.644;2023-04-30T04:46:03;99610.19;;;15.35;58.41
40574;BME280;26283;49.020;8.644;2023-04-30T04:48:29;99611.28;;;15.34;58.41
40574;BME280;26283;49.020;8.644;2023-04-30T04:50:55;99610.19;;;15.35;58.42
40574;BME280;26283;49.020;8.644;2023-04-30T04:53:20;99618.59;;;15.33;58.43
40574;BME280;26283;49.020;8.644;2023-04-30T04:55:45;99617.53;;;15.34;58.43
40574;BME280;26283;49.020;8.644;2023-04-30T04:58:11;99617.75;;;15.33;58.44
40574;BME280;26283;49.020;8.644;2023-04-30T05:00:38;99615.03;;;15.33;58.44
40574;BME280;26283;49.020;8.644;2023-04-30T05:03:03;99616.94;;;15.32;58.46
40574;BME280;26283;49.020;8.644;2023-04-30T05:05:28;99618.81;;;15.32;58.46
40574;BME280;26283;49.020;8.644;2023-04-30T05:07:54;99622.38;;;15.32;58.48
40574;BME280;26283;49.020;8.644;2023-04-30T05:10:19;99621.53;;;15.32;58.47
40574;BME280;26283;49.020;8.644;2023-04-30T05:12:45;99620.72;;;15.31;58.48
40574;BME280;26283;49.020;8.644;2023-04-30T05:15:10;99621.78;;;15.30;58.48
40574;BME280;26283;49.020;8.644;2023-04-30T05:17:36;99619.06;;;15.30;58.49
40574;BME280;26283;49.020;8.644;2023-04-30T05:20:01;99624.72;;;15.29;58.49
40574;BME280;26283;49.020;8.644;2023-04-30T05:22:26;99631.81;;;15.30;58.49
40574;BME280;26283;49.020;8.644;2023-04-30T05:24:52;99632.88;;;15.29;58.50
40574;BME280;26283;49.020;8.644;2023-04-30T05:27:17;99623.66;;;15.30;58.50
40574;BME280;26283;49.020;8.644;2023-04-30T05:29:42;99622.03;;;15.29;58.50
40574;BME280;26283;49.020;8.644;2023-04-30T05:32:08;99623.09;;;15.28;58.50
40574;BME280;26283;49.020;8.644;2023-04-30T05:34:33;99625.78;;;15.28;58.51
40574;BME280;26283;49.020;8.644;2023-04-30T05:36:58;99630.41;;;15.27;58.52
40574;BME280;26283;49.020;8.644;2023-04-30T05:39:25;99629.56;;;15.27;58.52
40574;BME280;26283;49.020;8.644;2023-04-30T05:41:51;99626.87;;;15.27;58.53
40574;BME280;26283;49.020;8.644;2023-04-30T05:44:16;99622.50;;;15.26;58.54
40574;BME280;26283;49.020;8.644;2023-04-30T05:46:41;99626.87;;;15.27;58.53
40574;BME280;26283;49.020;8.644;2023-04-30T05:49:07;99624.38;;;15.25;58.54
40574;BME280;26283;49.020;8.644;2023-04-30T05:51:32;99622.50;;;15.26;58.54
40574;BME280;26283;49.020;8.644;2023-04-30T05:53:57;99628.75;;;15.26;58.55
40574;BME280;26283;49.020;8.644;2023-04-30T05:56:24;99629.00;;;15.25;58.56
40574;BME280;26283;49.020;8.644;2023-04-30T05:58:50;99621.91;;;15.24;58.56
40574;BME280;26283;49.020;8.644;2023-04-30T06:01:18;99624.62;;;15.24;58.56
40574;BME280;26283;49.020;8.644;2023-04-30T06:03:43;99627.34;;;15.24;58.58
40574;BME280;26283;49.020;8.644;2023-04-30T06:06:09;99634.66;;;15.23;58.58
40574;BME280;26283;49.020;8.644;2023-04-30T06:08:35;99638.19;;;15.24;58.58
40574;BME280;26283;49.020;8.644;2023-04-30T06:11:00;99628.41;;;15.23;58.58
40574;BME280;26283;49.020;8.644;2023-04-30T06:13:27;99634.66;;;15.23;58.59
40574;BME280;26283;49.020;8.644;2023-04-30T06:15:53;99631.12;;;15.23;58.60
40574;BME280;26283;49.020;8.644;2023-04-30T06:18:18;99633.00;;;15.22;58.60
40574;BME280;26283;49.020;8.644;2023-04-30T06:20:44;99636.53;;;15.23;58.60
40574;BME280;26283;49.020;8.644;2023-04-30T06:23:10;99634.91;;;15.22;58.61
40574;BME280;26283;49.020;8.644;2023-04-30T06:25:35;99625.09;;;15.21;58.61
40574;BME280;26283;49.020;8.644;2023-04-30T06:28:00;99635.13;;;15.20;58.62
40574;BME280;26283;49.020;8.644;2023-04-30T06:30:26;99629.69;;;15.20;58.63
40574;BME280;26283;49.020;8.644;2023-04-30T06:32:51;99626.75;;;15.22;58.63
40574;BME280;26283;49.020;8.644;2023-04-30T06:35:16;99628.88;;;15.20;58.63
40574;BME280;26283;49.020;8.644;2023-04-30T06:37:42;99633.47;;;15.19;58.65
40574;BME280;26283;49.020;8.644;2023-04-30T06:40:07;99637.03;;;15.20;58.65
40574;BME280;26283;49.020;8.644;2023-04-30T06:42:33;99637.03;;;15.20;58.66
40574;BME280;26283;49.020;8.644;2023-04-30T06:45:02;99631.81;;;15.18;58.67
40574;BME280;26283;49.020;8.644;2023-04-30T06:47:29;99633.47;;;15.19;58.69
40574;BME280;26283;49.020;8.644;2023-04-30T06:49:59;99639.16;;;15.18;58.68
40574;BME280;26283;49.020;8.644;2023-04-30T06:52:24;99635.37;;;15.19;58.67
40574;BME280;26283;49.020;8.644;2023-04-30T06:54:50;99635.37;;;15.19;58.69
40574;BME280;26283;49.020;8.644;2023-04-30T06:57:16;99635.37;;;15.19;58.70
40574;BME280;26283;49.020;8.644;2023-04-30T06:59:41;99632.66;;;15.19;58.70
40574;BME280;26283;49.020;8.644;2023-04-30T07:02:06;99634.31;;;15.20;58.71
40574;BME280;26283;49.020;8.644;2023-04-30T07:04:32;99637.03;;;15.20;58.71
40574;BME280;26283;49.020;8.644;2023-04-30T07:06:57;99629.13;;;15.18;58.70
40574;BME280;26283;49.020;8.644;2023-04-30T07:09:29;99629.94;;;15.19;58.71
40574;BME280;26283;49.020;8.644;2023-04-30T07:11:55;99630.75;;;15.19;58.73
40574;BME280;26283;49.020;8.644;2023-04-30T07:14:21;99624.50;;;15.19;58.71
40574;BME280;26283;49.020;8.644;2023-04-30T07:16:49;99628.06;;;15.19;58.73
40574;BME280;26283;49.020;8.644;2023-04-30T07:19:16;99627.00;;;15.20;58.72
40574;BME280;26283;49.020;8.644;2023-04-30T07:21:42;99634.31;;;15.20;58.75
40574;BME280;26283;49.020;8.644;2023-04-30T07:24:07;99627.00;;;15.20;58.73
40574;BME280;26283;49.020;8.644;2023-04-30T07:26:32;99631.59;;;15.20;58.74
40574;BME280;26283;49.020;8.644;2023-04-30T07:28:58;99632.19;;;15.22;58.74
40574;BME280;26283;49.020;8.644;2023-04-30T07:31:23;99630.28;;;15.22;58.75
40574;BME280;26283;49.020;8.644;2023-04-30T07:33:50;99633.81;;;15.23;58.74
40574;BME280;26283;49.020;8.644;2023-04-30T07:36:18;99628.41;;;15.23;58.73
40574;BME280;26283;49.020;8.644;2023-04-30T07:38:46;99621.91;;;15.24;58.73
40574;BME280;26283;49.020;8.644;2023-04-30T07:41:12;99623.56;;;15.25;58.73
40574;BME280;26283;49.020;8.644;2023-04-30T07:43:38;99623.56;;;15.25;58.73
40574;BME280;26283;49.020;8.644;2023-04-30T07:46:03;99623.56;;;15.25;58.73
40574;BME280;26283;49.020;8.644;2023-04-30T07:48:29;99619.78;;;15.26;58.72
40574;BME280;26283;49.020;8.644;2023-04-30T07:50:55;99612.47;;;15.26;58.73
40574;BME280;26283;49.020;8.644;2023-04-30T07:53:22;99618.72;;;15.27;58.73
40574;BME280;26283;49.020;8.644;2023-04-30T07:55:47;99614.09;;;15.27;58.75
40574;BME280;26283;49.020;8.644;2023-04-30T07:58:12;99612.22;;;15.28;58.75
40574;BME280;26283;49.020;8.644;2023-04-30T08:00:38;99613.88;;;15.29;58.74
40574;BME280;26283;49.020;8.644;2023-04-30T08:03:03;99623.44;;;15.31;58.75
40574;BME280;26283;49.020;8.644;2023-04-30T08:05:28;99621.53;;;15.32;58.75
40574;BME280;26283;49.020;8.644;2023-04-30T08:07:54;99618.00;;;15.31;58.75
40574;BME280;26283;49.020;8.644;2023-04-30T08:10:19;99610.69;;;15.32;58.73
40574;BME280;26283;49.020;8.644;2023-04-30T08:12:45;99613.97;;;15.34;58.75
40574;BME280;26283;49.020;8.644;2023-04-30T08:15:10;99617.28;;;15.36;58.74
40574;BME280;26283;49.020;8.644;2023-04-30T08:17:36;99612.69;;;15.36;58.72
40574;BME280;26283;49.020;8.644;2023-04-30T08:20:08;99602.63;;;15.37;58.70
40574;BME280;26283;49.020;8.644;2023-04-30T08:22:33;99613.22;;;15.38;58.70
40574;BME280;26283;49.020;8.644;2023-04-30T08:24:59;99611.34;;;15.39;58.69
40574;BME280;26283;49.020;8.644;2023-04-30T08:27:26;99612.75;;;15.41;58.72
40574;BME280;26283;49.020;8.644;2023-04-30T08:29:51;99619.00;;;15.42;58.69
40574;BME280;26283;49.020;8.644;2023-04-30T08:32:18;99626.09;;;15.43;58.68
40574;BME280;26283;49.020;8.644;2023-04-30T08:34:43;99618.53;;;15.45;58.64
40574;BME280;26283;49.020;8.644;2023-04-30T08:37:08;99616.62;;;15.46;58.64
40574;BME280;26283;49.020;8.644;2023-04-30T08:39:34;99615.34;;;15.48;58.65
40574;BME280;26283;49.020;8.644;2023-04-30T08:42:01;99618.63;;;15.50;58.63
40574;BME280;26283;49.020;8.644;2023-04-30T08:44:31;99615.69;;;15.52;58.61
40574;BME280;26283;49.020;8.644;2023-04-30T08:46:58;99612.72;;;15.53;58.59
40574;BME280;26283;49.020;8.644;2023-04-30T08:49:24;99609.78;;;15.55;58.56
40574;BME280;26283;49.020;8.644;2023-04-30T08:51:50;99615.81;;;15.57;58.54
40574;BME280;26283;49.020;8.644;2023-04-30T08:54:16;99614.75;;;15.58;58.51
40574;BME280;26283;49.020;8.644;2023-04-30T08:56:44;99613.41;;;15.60;58.49
40574;BME280;26283;49.020;8.644;2023-04-30T08:59:11;99615.06;;;15.61;58.42
40574;BME280;26283;49.020;8.644;2023-04-30T09:01:36;99615.66;;;15.63;58.33
40574;BME280;26283;49.020;8.644;2023-04-30T09:04:05;99613.28;;;15.67;58.21
40574;BME280;26283;49.020;8.644;2023-04-30T09:06:30;99610.31;;;15.68;58.11
40574;BME280;26283;49.020;8.644;2023-04-30T09:08:56;99609.25;;;15.69;58.02
40574;BME280;26283;49.020;8.644;2023-04-30T09:11:29;99610.66;;;15.72;57.90
40574;BME280;26283;49.020;8.644;2023-04-30T09:13:56;99614.78;;;15.74;57.77
40574;BME280;26283;49.020;8.644;2023-04-30T09:16:23;99600.97;;;15.76;57.68
40574;BME280;26283;49.020;8.644;2023-04-30T09:18:49;99607.81;;;15.79;57.59
40574;BME280;26283;49.020;8.644;2023-04-30T09:21:14;99598.31;;;15.81;57.50
40574;BME280;26283;49.020;8.644;2023-04-30T09:24:02;99608.94;;;15.83;57.40
40574;BME280;26283;49.020;8.644;2023-04-30T09:26:36;99611.19;;;15.86;57.30
40574;BME280;26283;49.020;8.644;2023-04-30T09:29:02;99609.88;;;15.88;57.22
40574;BME280;26283;49.020;8.644;2023-04-30T09:31:33;99614.22;;;15.89;57.15
40574;BME280;26283;49.020;8.644;2023-04-30T09:33:59;99618.34;;;15.92;57.05
40574;BME280;26283;49.020;8.644;2023-04-30T09:36:27;99608.06;;;15.94;56.98
40574;BME280;26283;49.020;8.644;2023-04-30T09:38:52;99614.09;;;15.96;56.90
40574;BME280;26283;49.020;8.644;2023-04-30T09:41:31;99610.06;;;15.98;56.81
40574;BME280;26283;49.020;8.644;2023-04-30T09:43:56;99614.44;;;15.99;56.75
40574;BME280;26283;49.020;8.644;2023-04-30T09:46:32;99612.53;;;16.00;56.66
40574;BME280;26283;49.020;8.644;2023-04-30T09:49:05;99610.41;;;16.02;56.61
40574;BME280;26283;49.020;8.644;2023-04-30T09:51:33;99614.50;;;16.04;56.52
40574;BME280;26283;49.020;8.644;2023-04-30T09:54:02;99603.38;;;16.06;56.47
40574;BME280;26283;49.020;8.644;2023-04-30T09:56:27;99614.00;;;16.07;56.41
40574;BME280;26283;49.020;8.644;2023-04-30T09:58:54;99615.66;;;16.08;56.35
40574;BME280;26283;49.020;8.644;2023-04-30T10:01:21;99606.44;;;16.09;56.30
40574;BME280;26283;49.020;8.644;2023-04-30T10:03:47;99611.63;;;16.11;56.25
40574;BME280;26283;49.020;8.644;2023-04-30T10:06:14;99612.44;;;16.11;56.20
40574;BME280;26283;49.020;8.644;2023-04-30T10:08:46;99610.31;;;16.14;56.15
40574;BME280;26283;49.020;8.644;2023-04-30T10:11:17;99610.06;;;16.15;56.11
40574;BME280;26283;49.020;8.644;2023-04-30T10:13:59;99600.84;;;16.16;56.07
40574;BME280;26283;49.020;8.644;2023-04-30T10:16:42;99604.13;;;16.18;56.01
40574;BME280;26283;49.020;8.644;2023-04-30T10:19:17;99602.00;;;16.20;55.97
40574;BME280;26283;49.020;8.644;2023-04-30T10:21:44;99610.97;;;16.21;55.94
40574;BME280;26283;49.020;8.644;2023-04-30T10:24:16;99600.34;;;16.19;55.90
40574;BME280;26283;49.020;8.644;2023-04-30T10:26:44;99608.03;;;16.22;55.87
40574;BME280;26283;49.020;8.644;2023-04-30T10:29:11;99607.78;;;16.24;55.81
40574;BME280;26283;49.020;8.644;2023-04-30T10:31:38;99605.84;;;16.24;55.76
40574;BME280;26283;49.020;8.644;2023-04-30T10:36:59;99597.19;;;16.27;55.70
40574;BME280;26283;49.020;8.644;2023-04-30T10:39:29;99602.63;;;16.27;55.65
40574;BME280;26283;49.020;8.644;2023-04-30T10:42:02;99594.47;;;16.27;55.61
40574;BME280;26283;49.020;8.644;2023-04-30T10:44:31;99588.78;;;16.29;55.58
40574;BME280;26283;49.020;8.644;2023-04-30T10:47:02;99590.44;;;16.30;55.57
40574;BME280;26283;49.020;8.644;2023-04-30T10:49:28;99592.91;;;16.31;55.54
40574;BME280;26283;49.020;8.644;2023-04-30T10:51:54;99577.44;;;16.32;55.51
40574;BME280;26283;49.020;8.644;2023-04-30T10:54:27;99578.25;;;16.32;55.47
40574;BME280;26283;49.020;8.644;2023-04-30T10:56:54;99569.84;;;16.34;55.44
40574;BME280;26283;49.020;8.644;2023-04-30T10:59:33;99571.50;;;16.35;55.41
40574;BME280;26283;49.020;8.644;2023-04-30T11:02:00;99575.03;;;16.35;55.38
40574;BME280;26283;49.020;8.644;2023-04-30T11:04:28;99573.97;;;16.36;55.36
40574;BME280;26283;49.020;8.644;2023-04-30T11:07:05;99576.44;;;16.38;55.33
40574;BME280;26283;49.020;8.644;2023-04-30T11:09:34;99566.37;;;16.38;55.31
40574;BME280;26283;49.020;8.644;2023-04-30T11:12:03;99572.66;;;16.39;55.27
40574;BME280;26283;49.020;8.644;2023-04-30T11:14:31;99562.84;;;16.38;55.25
40574;BME280;26283;49.020;8.644;2023-04-30T11:16:59;99566.97;;;16.40;55.22
40574;BME280;26283;49.020;8.644;2023-04-30T11:19:28;99565.06;;;16.41;55.20
40574;BME280;26283;49.020;8.644;2023-04-30T11:24:49;99551.47;;;16.41;55.16
40574;BME280;26283;49.020;8.644;2023-04-30T11:27:37;99552.03;;;16.43;55.15
40574;BME280;26283;49.020;8.644;2023-04-30T11:30:09;99543.06;;;16.42;55.09
40574;BME280;26283;49.020;8.644;2023-04-30T11:32:36;99552.88;;;16.43;55.09
40574;BME280;26283;49.020;8.644;2023-04-30T11:35:03;99546.34;;;16.44;55.09
40574;BME280;26283;49.020;8.644;2023-04-30T11:37:34;99545.25;;;16.45;55.09
40574;BME280;26283;49.020;8.644;2023-04-30T11:40:04;99539.81;;;16.45;55.09
40574;BME280;26283;49.020;8.644;2023-04-30T11:42:30;99535.19;;;16.46;55.05
40574;BME280;26283;49.020;8.644;2023-04-30T11:45:12;99538.75;;;16.46;55.05
40574;BME280;26283;49.020;8.644;2023-04-30T11:50:11;99544.75;;;16.49;54.99
40574;BME280;26283;49.020;8.644;2023-04-30T11:52:38;99541.78;;;16.50;54.97
40574;BME280;26283;49.020;8.644;2023-04-30T11:55:14;99548.06;;;16.51;54.96
40574;BME280;26283;49.020;8.644;2023-04-30T11:57:45;99538.81;;;16.52;54.96
40574;BME280;26283;49.020;8.644;2023-04-30T12:00:13;99543.19;;;16.53;54.96
40574;BME280;26283;49.020;8.644;2023-04-30T12:02:40;99541.28;;;16.53;54.94
40574;BME280;26283;49.020;8.644;2023-04-30T12:05:13;99530.41;;;16.53;54.94
40574;BME280;26283;49.020;8.644;2023-04-30T12:07:44;99532.88;;;16.55;54.92
40574;BME280;26283;49.020;8.644;2023-04-30T12:10:11;99530.16;;;16.55;54.90
40574;BME280;26283;49.020;8.644;2023-04-30T12:12:36;99535.34;;;16.56;54.88
40574;BME280;26283;49.020;8.644;2023-04-30T12:15:31;99525.28;;;16.57;54.86
40574;BME280;26283;49.020;8.644;2023-04-30T12:17:58;99530.72;;;16.57;54.86
40574;BME280;26283;49.020;8.644;2023-04-30T12:20:26;99530.47;;;16.58;54.84
40574;BME280;26283;49.020;8.644;2023-04-30T12:22:52;99531.56;;;16.57;54.83
40574;BME280;26283;49.020;8.644;2023-04-30T12:25:20;99525.03;;;16.58;54.83
40574;BME280;26283;49.020;8.644;2023-04-30T12:27:57;99521.25;;;16.59;54.81
40574;BME280;26283;49.020;8.644;2023-04-30T12:30:25;99533.78;;;16.60;54.80
40574;BME280;26283;49.020;8.644;2023-04-30T12:32:56;99528.34;;;16.60;54.80
40574;BME280;26283;49.020;8.644;2023-04-30T12:35:22;99517.22;;;16.62;54.79
40574;BME280;26283;49.020;8.644;2023-04-30T12:37:55;99528.09;;;16.62;54.78
40574;BME280;26283;49.020;8.644;2023-04-30T12:40:26;99527.87;;;16.63;54.77
40574;BME280;26283;49.020;8.644;2023-04-30T12:43:13;99525.97;;;16.64;54.77
40574;BME280;26283;49.020;8.644;2023-04-30T12:45:50;99524.06;;;16.64;54.78
40574;BME280;26283;49.020;8.644;2023-04-30T12:48:17;99524.91;;;16.65;54.74
40574;BME280;26283;49.020;8.644;2023-04-30T12:50:58;99516.75;;;16.65;54.73
40574;BME280;26283;49.020;8.644;2023-04-30T12:53:28;99512.94;;;16.66;54.73
40574;BME280;26283;49.020;8.644;2023-04-30T12:56:16;99517.31;;;16.67;54.72
40574;BME280;26283;49.020;8.644;2023-04-30T12:58:46;99510.78;;;16.68;54.72
40574;BME280;26283;49.020;8.644;2023-04-30T13:01:21;99510.78;;;16.68;54.70
40574;BME280;26283;49.020;8.644;2023-04-30T13:03:49;99509.69;;;16.69;54.70
40574;BME280;26283;49.020;8.644;2023-04-30T13:06:14;99498.81;;;16.69;54.69
40574;BME280;26283;49.020;8.644;2023-04-30T13:08:43;99498.56;;;16.70;54.68
40574;BME280;26283;49.020;8.644;2023-04-30T13:11:09;99497.72;;;16.70;54.67
40574;BME280;26283;49.020;8.644;2023-04-30T13:13:38;99497.22;;;16.73;54.67
40574;BME280;26283;49.020;8.644;2023-04-30T13:16:04;99498.06;;;16.73;54.68